sensor_id;sensor_type;location;lat;lon;timestamp;temperature;humidity
5392;DHT22;2719;53.624;9.786;2023-08-21T00:02:08;20.20;99.90
5392;DHT22;2719;53.624;9.786;2023-08-21T00:04:35;20.20;99.90
5392;DHT22;2719;53.624;9.786;2023-08-21T00:07:02;20.10;99.90
5392;DHT22;2719;53.624;9.786;2023-08-21T00:09:28;20.10;99.90
5392;DHT22;2719;53.624;9.786;2023-08-21T00:11:55;20.00;99.90
5392;DHT22;2719;53.624;9.786;2023-08-21T00:14:22;20.00;99.90
5392;DHT22;2719;53.624;9.786;2023-08-21T00:16:50;20.00;99.90
5392;DHT22;2719;53.624;9.786;2023-08-21T00:19:17;19.90;99.90
5392;DHT22;2719;53.624;9.786;2023-08-21T00:21:43;19.90;99.90
5392;DHT22;2719;53.624;9.786;2023-08-21T00:24:10;19.90;99.90
5392;DHT22;2719;53.624;9.786;2023-08-21T00:26:37;19.90;99.90
5392;DHT22;2719;53.624;9.786;2023-08-21T00:29:03;19.80;99.90
5392;DHT22;2719;53.624;9.786;2023-08-21T00:31:30;19.80;99.90
5392;DHT22;2719;53.624;9.786;2023-08-21T00:33:58;19.80;99.90
5392;DHT22;2719;53.624;9.786;2023-08-21T00:36:24;19.70;99.90
5392;DHT22;2719;53.624;9.786;2023-08-21T00:38:51;19.70;99.90
5392;DHT22;2719;53.624;9.786;2023-08-21T00:41:18;19.70;99.90
5392;DHT22;2719;53.624;9.786;2023-08-21T00:43:44;19.70;99.90
5392;DHT22;2719;53.624;9.786;2023-08-21T00:46:11;19.60;99.90
5392;DHT22;2719;53.624;9.786;2023-08-21T00:48:38;19.60;99.90
5392;DHT22;2719;53.624;9.786;2023-08-21T00:51:06;19.60;99.90
5392;DHT22;2719;53.624;9.786;2023-08-21T00:53:33;19.60;99.90
5392;DHT22;2719;53.624;9.786;2023-08-21T00:56:00;19.60;99.90
5392;DHT22;2719;53.624;9.786;2023-08-21T00:58:28;19.60;99.90
5392;DHT22;2719;53.624;9.786;2023-08-21T01:00:54;19.50;99.90
5392;DHT22;2719;53.624;9.786;2023-08-21T01:03:23;19.50;99.90
5392;DHT22;2719;53.624;9.786;2023-08-21T01:05:50;19.50;99.90
5392;DHT22;2719;53.624;9.786;2023-08-21T01:08:23;19.50;99.90
5392;DHT22;2719;53.624;9.786;2023-08-21T01:10:54;19.50;99.90
5392;DHT22;2719;53.624;9.786;2023-08-21T01:13:31;19.50;99.90
5392;DHT22;2719;53.624;9.786;2023-08-21T01:16:00;19.40;99.90
5392;DHT22;2719;53.624;9.786;2023-08-21T01:18:28;19.40;99.90
5392;DHT22;2719;53.624;9.786;2023-08-21T01:20:55;19.40;99.90
5392;DHT22;2719;53.624;9.786;2023-08-21T01:23:32;19.30;99.90
5392;DHT22;2719;53.624;9.786;2023-08-21T01:25:59;19.30;99.90
5392;DHT22;2719;53.624;9.786;2023-08-21T01:28:25;19.30;99.90
5392;DHT22;2719;53.624;9.786;2023-08-21T01:31:01;19.30;99.90
5392;DHT22;2719;53.624;9.786;2023-08-21T01:33:34;19.30;99.90
5392;DHT22;2719;53.624;9.786;2023-08-21T01:36:02;19.20;99.90
5392;DHT22;2719;53.624;9.786;2023-08-21T01:38:32;19.20;99.90
5392;DHT22;2719;53.624;9.786;2023-08-21T01:41:00;19.20;99.90
5392;DHT22;2719;53.624;9.786;2023-08-21T01:43:27;19.20;99.90
5392;DHT22;2719;53.624;9.786;2023-08-21T01:45:54;19.20;99.90
5392;DHT22;2719;53.624;9.786;2023-08-21T01:48:21;19.20;99.90
5392;DHT22;2719;53.624;9.786;2023-08-21T01:50:47;19.20;99.90
5392;DHT22;2719;53.624;9.786;2023-08-21T01:53:14;19.20;99.90
5392;DHT22;2719;53.624;9.786;2023-08-21T01:55:42;19.10;99.90
5392;DHT22;2719;53.624;9.786;2023-08-21T01:58:09;19.10;99.90
5392;DHT22;2719;53.624;9.786;2023-08-21T02:00:35;19.10;99.90
5392;DHT22;2719;53.624;9.786;2023-08-21T02:03:02;19.00;99.90
5392;DHT22;2719;53.624;9.786;2023-08-21T02:05:29;19.00;99.90
5392;DHT22;2719;53.624;9.786;2023-08-21T02:07:55;19.00;99.90
5392;DHT22;2719;53.624;9.786;2023-08-21T02:10:22;19.00;99.90
5392;DHT22;2719;53.624;9.786;2023-08-21T02:12:50;19.00;99.90
5392;DHT22;2719;53.624;9.786;2023-08-21T02:15:17;19.00;99.90
5392;DHT22;2719;53.624;9.786;2023-08-21T02:17:44;19.00;99.90
5392;DHT22;2719;53.624;9.786;2023-08-21T02:20:11;18.90;99.90
5392;DHT22;2719;53.624;9.786;2023-08-21T02:22:37;18.90;99.90
5392;DHT22;2719;53.624;9.786;2023-08-21T02:25:04;18.90;99.90
5392;DHT22;2719;53.624;9.786;2023-08-21T02:27:31;18.90;99.90
5392;DHT22;2719;53.624;9.786;2023-08-21T02:29:59;18.90;99.90
5392;DHT22;2719;53.624;9.786;2023-08-21T02:32:26;18.90;99.90
5392;DHT22;2719;53.624;9.786;2023-08-21T02:34:52;18.90;99.90
5392;DHT22;2719;53.624;9.786;2023-08-21T02:37:19;18.90;99.90
5392;DHT22;2719;53.624;9.786;2023-08-21T02:39:46;18.90;99.90
5392;DHT22;2719;53.624;9.786;2023-08-21T02:42:12;18.90;99.90
5392;DHT22;2719;53.624;9.786;2023-08-21T02:44:39;18.90;99.90
5392;DHT22;2719;53.624;9.786;2023-08-21T02:47:07;18.90;99.90
5392;DHT22;2719;53.624;9.786;2023-08-21T02:49:34;18.80;99.90
5392;DHT22;2719;53.624;9.786;2023-08-21T02:52:00;18.80;99.90
5392;DHT22;2719;53.624;9.786;2023-08-21T02:54:27;18.80;99.90
5392;DHT22;2719;53.624;9.786;2023-08-21T02:56:54;18.80;99.90
5392;DHT22;2719;53.624;9.786;2023-08-21T02:59:20;18.80;99.90
5392;DHT22;2719;53.624;9.786;2023-08-21T03:01:47;18.80;99.90
5392;DHT22;2719;53.624;9.786;2023-08-21T03:04:15;18.80;99.90
5392;DHT22;2719;53.624;9.786;2023-08-21T03:06:41;18.80;99.90
5392;DHT22;2719;53.624;9.786;2023-08-21T03:09:08;18.80;99.90
5392;DHT22;2719;53.624;9.786;2023-08-21T03:11:35;18.80;99.90
5392;DHT22;2719;53.624;9.786;2023-08-21T03:14:01;18.80;99.90
5392;DHT22;2719;53.624;9.786;2023-08-21T03:16:28;18.80;99.90
5392;DHT22;2719;53.624;9.786;2023-08-21T03:18:56;18.80;99.90
5392;DHT22;2719;53.624;9.786;2023-08-21T03:21:24;18.80;99.90
5392;DHT22;2719;53.624;9.786;2023-08-21T03:23:54;18.80;99.90
5392;DHT22;2719;53.624;9.786;2023-08-21T03:26:21;18.80;99.90
5392;DHT22;2719;53.624;9.786;2023-08-21T03:28:47;18.80;99.90
5392;DHT22;2719;53.624;9.786;2023-08-21T03:31:14;18.80;99.90
5392;DHT22;2719;53.624;9.786;2023-08-21T03:33:41;18.80;99.90
5392;DHT22;2719;53.624;9.786;2023-08-21T03:36:08;18.80;99.90
5392;DHT22;2719;53.624;9.786;2023-08-21T03:38:36;18.80;99.90
5392;DHT22;2719;53.624;9.786;2023-08-21T03:41:02;18.80;99.90
5392;DHT22;2719;53.624;9.786;2023-08-21T03:43:30;18.80;99.90
5392;DHT22;2719;53.624;9.786;2023-08-21T03:45:57;18.80;99.90
5392;DHT22;2719;53.624;9.786;2023-08-21T03:48:23;18.80;99.90
5392;DHT22;2719;53.624;9.786;2023-08-21T03:50:50;18.80;99.90
5392;DHT22;2719;53.624;9.786;2023-08-21T03:53:18;18.80;99.90
5392;DHT22;2719;53.624;9.786;2023-08-21T03:55:46;18.80;99.90
5392;DHT22;2719;53.624;9.786;2023-08-21T03:58:13;18.80;99.90
5392;DHT22;2719;53.624;9.786;2023-08-21T04:00:41;18.80;99.90
5392;DHT22;2719;53.624;9.786;2023-08-21T04:03:07;18.80;99.90
5392;DHT22;2719;53.624;9.786;2023-08-21T04:05:34;18.80;99.90
5392;DHT22;2719;53.624;9.786;2023-08-21T04:08:01;18.90;99.90
5392;DHT22;2719;53.624;9.786;2023-08-21T04:10:27;18.90;99.90
5392;DHT22;2719;53.624;9.786;2023-08-21T04:12:55;18.80;99.90
5392;DHT22;2719;53.624;9.786;2023-08-21T04:15:22;18.80;99.90
5392;DHT22;2719;53.624;9.786;2023-08-21T04:17:49;18.80;99.90
5392;DHT22;2719;53.624;9.786;2023-08-21T04:20:15;18.80;99.90
5392;DHT22;2719;53.624;9.786;2023-08-21T04:22:42;18.70;99.90
5392;DHT22;2719;53.624;9.786;2023-08-21T04:25:09;18.70;99.90
5392;DHT22;2719;53.624;9.786;2023-08-21T04:27:36;18.70;99.90
5392;DHT22;2719;53.624;9.786;2023-08-21T04:30:05;18.70;99.90
5392;DHT22;2719;53.624;9.786;2023-08-21T04:32:32;18.70;99.90
5392;DHT22;2719;53.624;9.786;2023-08-21T04:34:59;18.70;99.90
5392;DHT22;2719;53.624;9.786;2023-08-21T04:37:26;18.70;99.90
5392;DHT22;2719;53.624;9.786;2023-08-21T04:39:53;18.70;99.90
5392;DHT22;2719;53.624;9.786;2023-08-21T04:42:20;18.70;99.90
5392;DHT22;2719;53.624;9.786;2023-08-21T04:44:47;18.70;99.90
5392;DHT22;2719;53.624;9.786;2023-08-21T04:47:20;18.70;99.90
5392;DHT22;2719;53.624;9.786;2023-08-21T04:49:48;18.70;99.90
5392;DHT22;2719;53.624;9.786;2023-08-21T04:52:14;18.70;99.90
5392;DHT22;2719;53.624;9.786;2023-08-21T04:54:41;18.70;99.90
5392;DHT22;2719;53.624;9.786;2023-08-21T04:57:08;18.70;99.90
5392;DHT22;2719;53.624;9.786;2023-08-21T04:59:34;18.60;99.90
5392;DHT22;2719;53.624;9.786;2023-08-21T05:02:01;18.60;99.90
5392;DHT22;2719;53.624;9.786;2023-08-21T05:04:29;18.60;99.90
5392;DHT22;2719;53.624;9.786;2023-08-21T05:06:56;18.50;99.90
5392;DHT22;2719;53.624;9.786;2023-08-21T05:09:23;18.60;99.90
5392;DHT22;2719;53.624;9.786;2023-08-21T05:11:49;18.60;99.90
5392;DHT22;2719;53.624;9.786;2023-08-21T05:14:16;18.60;99.90
5392;DHT22;2719;53.624;9.786;2023-08-21T05:16:45;18.60;99.90
5392;DHT22;2719;53.624;9.786;2023-08-21T05:19:11;18.60;99.90
5392;DHT22;2719;53.624;9.786;2023-08-21T05:21:39;18.70;99.90
5392;DHT22;2719;53.624;9.786;2023-08-21T05:24:06;18.70;99.90
5392;DHT22;2719;53.624;9.786;2023-08-21T05:26:34;18.70;99.90
5392;DHT22;2719;53.624;9.786;2023-08-21T05:29:01;18.70;99.90
5392;DHT22;2719;53.624;9.786;2023-08-21T05:31:28;18.80;99.90
5392;DHT22;2719;53.624;9.786;2023-08-21T05:33:55;18.80;99.90
5392;DHT22;2719;53.624;9.786;2023-08-21T05:36:21;18.80;99.90
5392;DHT22;2719;53.624;9.786;2023-08-21T05:38:50;18.80;99.90
5392;DHT22;2719;53.624;9.786;2023-08-21T05:41:16;18.80;99.90
5392;DHT22;2719;53.624;9.786;2023-08-21T05:43:43;18.80;99.90
5392;DHT22;2719;53.624;9.786;2023-08-21T05:46:11;18.90;99.90
5392;DHT22;2719;53.624;9.786;2023-08-21T05:48:37;18.90;99.90
5392;DHT22;2719;53.624;9.786;2023-08-21T05:51:04;18.90;99.90
5392;DHT22;2719;53.624;9.786;2023-08-21T05:53:31;19.00;99.90
5392;DHT22;2719;53.624;9.786;2023-08-21T05:55:59;19.00;99.90
5392;DHT22;2719;53.624;9.786;2023-08-21T05:58:26;19.00;99.90
5392;DHT22;2719;53.624;9.786;2023-08-21T06:00:55;19.00;99.90
5392;DHT22;2719;53.624;9.786;2023-08-21T06:03:22;19.10;99.90
5392;DHT22;2719;53.624;9.786;2023-08-21T06:05:49;19.10;99.90
5392;DHT22;2719;53.624;9.786;2023-08-21T06:08:16;19.20;99.90
5392;DHT22;2719;53.624;9.786;2023-08-21T06:10:43;19.20;99.90
5392;DHT22;2719;53.624;9.786;2023-08-21T06:13:11;19.20;99.90
5392;DHT22;2719;53.624;9.786;2023-08-21T06:15:38;19.30;99.90
5392;DHT22;2719;53.624;9.786;2023-08-21T06:18:04;19.40;99.90
5392;DHT22;2719;53.624;9.786;2023-08-21T06:20:31;19.50;99.90
5392;DHT22;2719;53.624;9.786;2023-08-21T06:22:58;19.50;99.90
5392;DHT22;2719;53.624;9.786;2023-08-21T06:25:24;19.50;99.90
5392;DHT22;2719;53.624;9.786;2023-08-21T06:27:51;19.60;99.90
5392;DHT22;2719;53.624;9.786;2023-08-21T06:30:19;19.70;99.90
5392;DHT22;2719;53.624;9.786;2023-08-21T06:32:46;19.80;99.90
5392;DHT22;2719;53.624;9.786;2023-08-21T06:35:12;19.90;99.90
5392;DHT22;2719;53.624;9.786;2023-08-21T06:37:40;19.90;99.90
5392;DHT22;2719;53.624;9.786;2023-08-21T06:40:08;20.00;99.90
5392;DHT22;2719;53.624;9.786;2023-08-21T06:42:35;20.00;99.90
5392;DHT22;2719;53.624;9.786;2023-08-21T06:45:03;20.10;99.90
5392;DHT22;2719;53.624;9.786;2023-08-21T06:47:31;20.20;99.90
5392;DHT22;2719;53.624;9.786;2023-08-21T06:49:58;20.20;99.90
5392;DHT22;2719;53.624;9.786;2023-08-21T06:52:26;20.30;99.90
5392;DHT22;2719;53.624;9.786;2023-08-21T06:54:52;20.40;99.90
5392;DHT22;2719;53.624;9.786;2023-08-21T06:57:19;20.40;99.90
5392;DHT22;2719;53.624;9.786;2023-08-21T06:59:46;20.50;99.90
5392;DHT22;2719;53.624;9.786;2023-08-21T07:02:12;20.50;99.90
5392;DHT22;2719;53.624;9.786;2023-08-21T07:04:40;20.50;99.90
5392;DHT22;2719;53.624;9.786;2023-08-21T07:07:07;20.50;99.90
5392;DHT22;2719;53.624;9.786;2023-08-21T07:09:34;20.70;99.90
5392;DHT22;2719;53.624;9.786;2023-08-21T07:12:00;20.70;99.90
5392;DHT22;2719;53.624;9.786;2023-08-21T07:14:28;20.70;99.90
5392;DHT22;2719;53.624;9.786;2023-08-21T07:16:54;20.70;99.90
5392;DHT22;2719;53.624;9.786;2023-08-21T07:19:21;20.80;99.90
5392;DHT22;2719;53.624;9.786;2023-08-21T07:21:49;20.90;99.90
5392;DHT22;2719;53.624;9.786;2023-08-21T07:24:16;20.90;99.90
5392;DHT22;2719;53.624;9.786;2023-08-21T07:26:42;21.00;99.90
5392;DHT22;2719;53.624;9.786;2023-08-21T07:29:09;21.10;99.90
5392;DHT22;2719;53.624;9.786;2023-08-21T07:31:36;21.10;99.90
5392;DHT22;2719;53.624;9.786;2023-08-21T07:34:02;21.00;99.90
5392;DHT22;2719;53.624;9.786;2023-08-21T07:36:31;21.00;99.90
5392;DHT22;2719;53.624;9.786;2023-08-21T07:38:59;21.00;99.90
5392;DHT22;2719;53.624;9.786;2023-08-21T07:41:26;21.10;99.90
5392;DHT22;2719;53.624;9.786;2023-08-21T07:43:52;21.20;99.90
5392;DHT22;2719;53.624;9.786;2023-08-21T07:46:19;21.10;99.90
5392;DHT22;2719;53.624;9.786;2023-08-21T07:48:46;21.10;99.90
5392;DHT22;2719;53.624;9.786;2023-08-21T07:51:13;21.20;99.90
5392;DHT22;2719;53.624;9.786;2023-08-21T07:53:39;21.30;99.90
5392;DHT22;2719;53.624;9.786;2023-08-21T07:56:07;21.40;99.90
5392;DHT22;2719;53.624;9.786;2023-08-21T07:58:34;21.40;99.90
5392;DHT22;2719;53.624;9.786;2023-08-21T08:01:01;21.30;99.90
5392;DHT22;2719;53.624;9.786;2023-08-21T08:03:30;21.30;99.90
5392;DHT22;2719;53.624;9.786;2023-08-21T08:05:56;21.40;99.90
5392;DHT22;2719;53.624;9.786;2023-08-21T08:08:23;21.30;99.90
5392;DHT22;2719;53.624;9.786;2023-08-21T08:10:50;21.30;99.90
5392;DHT22;2719;53.624;9.786;2023-08-21T08:13:19;21.40;99.90
5392;DHT22;2719;53.624;9.786;2023-08-21T08:15:45;21.40;99.90
5392;DHT22;2719;53.624;9.786;2023-08-21T08:18:12;21.30;99.90
5392;DHT22;2719;53.624;9.786;2023-08-21T08:20:40;21.20;99.90
5392;DHT22;2719;53.624;9.786;2023-08-21T08:23:07;21.10;99.90
5392;DHT22;2719;53.624;9.786;2023-08-21T08:25:33;21.10;99.90
5392;DHT22;2719;53.624;9.786;2023-08-21T08:28:00;21.20;99.90
5392;DHT22;2719;53.624;9.786;2023-08-21T08:30:28;21.20;99.90
5392;DHT22;2719;53.624;9.786;2023-08-21T08:32:55;21.20;99.90
5392;DHT22;2719;53.624;9.786;2023-08-21T08:35:22;21.30;99.90
5392;DHT22;2719;53.624;9.786;2023-08-21T08:37:48;21.30;99.90
5392;DHT22;2719;53.624;9.786;2023-08-21T08:40:15;21.40;99.90
5392;DHT22;2719;53.624;9.786;2023-08-21T08:42:42;21.40;99.90
5392;DHT22;2719;53.624;9.786;2023-08-21T08:45:09;21.40;99.90
5392;DHT22;2719;53.624;9.786;2023-08-21T08:47:40;21.40;99.90
5392;DHT22;2719;53.624;9.786;2023-08-21T08:50:08;21.40;99.90
5392;DHT22;2719;53.624;9.786;2023-08-21T08:52:36;21.40;99.90
5392;DHT22;2719;53.624;9.786;2023-08-21T08:55:03;21.40;99.90
5392;DHT22;2719;53.624;9.786;2023-08-21T08:57:32;21.40;99.90
5392;DHT22;2719;53.624;9.786;2023-08-21T08:59:59;21.50;99.90
5392;DHT22;2719;53.624;9.786;2023-08-21T09:02:26;21.50;99.90
5392;DHT22;2719;53.624;9.786;2023-08-21T09:04:54;21.50;99.90
5392;DHT22;2719;53.624;9.786;2023-08-21T09:07:21;21.50;99.90
5392;DHT22;2719;53.624;9.786;2023-08-21T09:09:48;21.50;99.90
5392;DHT22;2719;53.624;9.786;2023-08-21T09:12:17;21.50;99.90
5392;DHT22;2719;53.624;9.786;2023-08-21T09:14:44;21.40;99.90
5392;DHT22;2719;53.624;9.786;2023-08-21T09:17:12;21.40;99.90
5392;DHT22;2719;53.624;9.786;2023-08-21T09:19:39;21.40;99.90
5392;DHT22;2719;53.624;9.786;2023-08-21T09:22:11;21.50;99.90
5392;DHT22;2719;53.624;9.786;2023-08-21T09:24:38;21.50;99.90
5392;DHT22;2719;53.624;9.786;2023-08-21T09:27:13;21.50;99.90
5392;DHT22;2719;53.624;9.786;2023-08-21T09:29:40;21.50;99.90
5392;DHT22;2719;53.624;9.786;2023-08-21T09:32:07;21.60;99.90
5392;DHT22;2719;53.624;9.786;2023-08-21T09:34:34;21.70;99.90
5392;DHT22;2719;53.624;9.786;2023-08-21T09:37:05;21.70;99.90
5392;DHT22;2719;53.624;9.786;2023-08-21T09:39:37;21.70;99.90
5392;DHT22;2719;53.624;9.786;2023-08-21T09:42:08;21.80;99.90
5392;DHT22;2719;53.624;9.786;2023-08-21T09:44:35;21.80;99.90
5392;DHT22;2719;53.624;9.786;2023-08-21T09:47:02;21.90;99.90
5392;DHT22;2719;53.624;9.786;2023-08-21T09:49:30;21.90;99.90
5392;DHT22;2719;53.624;9.786;2023-08-21T09:51:59;21.90;99.90
5392;DHT22;2719;53.624;9.786;2023-08-21T09:54:27;21.90;99.90
5392;DHT22;2719;53.624;9.786;2023-08-21T09:56:56;21.90;99.90
5392;DHT22;2719;53.624;9.786;2023-08-21T09:59:23;22.00;99.90
5392;DHT22;2719;53.624;9.786;2023-08-21T10:01:51;22.00;99.90
5392;DHT22;2719;53.624;9.786;2023-08-21T10:04:18;22.10;99.90
5392;DHT22;2719;53.624;9.786;2023-08-21T10:06:46;22.10;99.90
5392;DHT22;2719;53.624;9.786;2023-08-21T10:09:14;22.10;99.90
5392;DHT22;2719;53.624;9.786;2023-08-21T10:11:42;22.20;99.90
5392;DHT22;2719;53.624;9.786;2023-08-21T10:14:11;22.20;99.90
5392;DHT22;2719;53.624;9.786;2023-08-21T10:16:37;22.20;99.90
5392;DHT22;2719;53.624;9.786;2023-08-21T10:19:04;22.20;99.90
5392;DHT22;2719;53.624;9.786;2023-08-21T10:21:34;22.30;99.90
5392;DHT22;2719;53.624;9.786;2023-08-21T10:24:01;22.30;99.90
5392;DHT22;2719;53.624;9.786;2023-08-21T10:26:28;22.40;99.90
5392;DHT22;2719;53.624;9.786;2023-08-21T10:28:58;22.30;99.90
5392;DHT22;2719;53.624;9.786;2023-08-21T10:31:31;22.30;99.90
5392;DHT22;2719;53.624;9.786;2023-08-21T10:33:59;22.40;99.90
5392;DHT22;2719;53.624;9.786;2023-08-21T10:36:37;22.40;99.90
5392;DHT22;2719;53.624;9.786;2023-08-21T10:39:13;22.40;99.90
5392;DHT22;2719;53.624;9.786;2023-08-21T10:41:40;22.40;99.90
5392;DHT22;2719;53.624;9.786;2023-08-21T10:44:06;22.50;99.90
5392;DHT22;2719;53.624;9.786;2023-08-21T10:46:53;22.60;99.90
5392;DHT22;2719;53.624;9.786;2023-08-21T10:49:19;22.50;99.90
5392;DHT22;2719;53.624;9.786;2023-08-21T10:51:46;22.50;99.90
5392;DHT22;2719;53.624;9.786;2023-08-21T10:54:13;22.60;99.90
5392;DHT22;2719;53.624;9.786;2023-08-21T10:56:40;22.70;99.90
5392;DHT22;2719;53.624;9.786;2023-08-21T10:59:07;22.70;99.90
5392;DHT22;2719;53.624;9.786;2023-08-21T11:01:44;22.90;99.90
5392;DHT22;2719;53.624;9.786;2023-08-21T11:04:12;23.00;99.90
5392;DHT22;2719;53.624;9.786;2023-08-21T11:06:39;23.00;99.90
5392;DHT22;2719;53.624;9.786;2023-08-21T11:09:12;23.00;99.90
5392;DHT22;2719;53.624;9.786;2023-08-21T11:11:39;23.00;99.90
5392;DHT22;2719;53.624;9.786;2023-08-21T11:14:06;23.00;99.90
5392;DHT22;2719;53.624;9.786;2023-08-21T11:16:32;23.00;99.90
5392;DHT22;2719;53.624;9.786;2023-08-21T11:19:03;23.00;99.90
5392;DHT22;2719;53.624;9.786;2023-08-21T11:21:32;23.00;99.90
5392;DHT22;2719;53.624;9.786;2023-08-21T11:23:59;23.20;99.90
5392;DHT22;2719;53.624;9.786;2023-08-21T11:26:25;23.20;99.90
5392;DHT22;2719;53.624;9.786;2023-08-21T11:28:52;23.20;99.90
5392;DHT22;2719;53.624;9.786;2023-08-21T11:31:19;23.30;99.90
5392;DHT22;2719;53.624;9.786;2023-08-21T11:33:49;23.30;99.90
5392;DHT22;2719;53.624;9.786;2023-08-21T11:36:16;23.30;99.90
5392;DHT22;2719;53.624;9.786;2023-08-21T11:38:57;23.40;99.90
5392;DHT22;2719;53.624;9.786;2023-08-21T11:41:24;23.40;99.90
5392;DHT22;2719;53.624;9.786;2023-08-21T11:43:51;23.40;99.90
5392;DHT22;2719;53.624;9.786;2023-08-21T11:46:18;23.50;99.90
5392;DHT22;2719;53.624;9.786;2023-08-21T11:48:45;23.50;99.90
5392;DHT22;2719;53.624;9.786;2023-08-21T11:51:12;23.60;99.90
5392;DHT22;2719;53.624;9.786;2023-08-21T11:53:39;23.50;99.90
5392;DHT22;2719;53.624;9.786;2023-08-21T11:56:11;23.60;99.90
5392;DHT22;2719;53.624;9.786;2023-08-21T11:58:38;23.60;99.90
5392;DHT22;2719;53.624;9.786;2023-08-21T12:01:06;23.70;99.90
5392;DHT22;2719;53.624;9.786;2023-08-21T12:03:36;23.70;99.90
5392;DHT22;2719;53.624;9.786;2023-08-21T12:06:07;23.90;99.90
5392;DHT22;2719;53.624;9.786;2023-08-21T12:08:34;23.80;99.90
5392;DHT22;2719;53.624;9.786;2023-08-21T12:11:01;23.80;99.90
5392;DHT22;2719;53.624;9.786;2023-08-21T12:13:29;23.90;99.90
5392;DHT22;2719;53.624;9.786;2023-08-21T12:15:56;23.80;99.90
5392;DHT22;2719;53.624;9.786;2023-08-21T12:18:23;23.80;99.90
5392;DHT22;2719;53.624;9.786;2023-08-21T12:20:50;23.80;99.90
5392;DHT22;2719;53.624;9.786;2023-08-21T12:23:16;23.90;99.90
5392;DHT22;2719;53.624;9.786;2023-08-21T12:25:43;23.90;99.90
5392;DHT22;2719;53.624;9.786;2023-08-21T12:28:10;24.00;99.90
5392;DHT22;2719;53.624;9.786;2023-08-21T12:30:38;24.10;99.90
5392;DHT22;2719;53.624;9.786;2023-08-21T12:33:05;24.30;99.90
5392;DHT22;2719;53.624;9.786;2023-08-21T12:35:31;24.30;99.90
5392;DHT22;2719;53.624;9.786;2023-08-21T12:37:58;24.30;99.40
5392;DHT22;2719;53.624;9.786;2023-08-21T12:40:30;24.30;99.90
5392;DHT22;2719;53.624;9.786;2023-08-21T12:42:57;24.50;99.90
5392;DHT22;2719;53.624;9.786;2023-08-21T12:45:24;24.60;98.00
5392;DHT22;2719;53.624;9.786;2023-08-21T12:47:52;24.70;96.00
5392;DHT22;2719;53.624;9.786;2023-08-21T12:50:18;24.80;96.50
5392;DHT22;2719;53.624;9.786;2023-08-21T12:52:45;25.00;97.10
5392;DHT22;2719;53.624;9.786;2023-08-21T12:55:12;25.10;97.60
5392;DHT22;2719;53.624;9.786;2023-08-21T12:57:39;25.20;96.50
5392;DHT22;2719;53.624;9.786;2023-08-21T13:00:07;25.40;97.70
5392;DHT22;2719;53.624;9.786;2023-08-21T13:02:33;25.40;96.60
5392;DHT22;2719;53.624;9.786;2023-08-21T13:05:01;25.60;97.10
5392;DHT22;2719;53.624;9.786;2023-08-21T13:07:29;25.70;97.30
5392;DHT22;2719;53.624;9.786;2023-08-21T13:09:55;25.80;98.30
5392;DHT22;2719;53.624;9.786;2023-08-21T13:12:24;25.90;96.90
5392;DHT22;2719;53.624;9.786;2023-08-21T13:14:51;26.00;97.20
5392;DHT22;2719;53.624;9.786;2023-08-21T13:17:18;26.10;95.30
5392;DHT22;2719;53.624;9.786;2023-08-21T13:19:44;26.20;95.60
5392;DHT22;2719;53.624;9.786;2023-08-21T13:22:15;26.20;94.40
5392;DHT22;2719;53.624;9.786;2023-08-21T13:24:42;26.30;95.30
5392;DHT22;2719;53.624;9.786;2023-08-21T13:27:09;26.30;94.50
5392;DHT22;2719;53.624;9.786;2023-08-21T13:29:37;26.30;94.30
5392;DHT22;2719;53.624;9.786;2023-08-21T13:32:04;26.20;92.20
5392;DHT22;2719;53.624;9.786;2023-08-21T13:34:30;26.30;93.60
5392;DHT22;2719;53.624;9.786;2023-08-21T13:36:57;26.40;94.30
5392;DHT22;2719;53.624;9.786;2023-08-21T13:39:25;26.50;93.80
5392;DHT22;2719;53.624;9.786;2023-08-21T13:41:52;26.40;93.40
5392;DHT22;2719;53.624;9.786;2023-08-21T13:44:19;26.50;93.60
5392;DHT22;2719;53.624;9.786;2023-08-21T13:46:45;26.60;93.30
5392;DHT22;2719;53.624;9.786;2023-08-21T13:49:12;26.70;93.50
5392;DHT22;2719;53.624;9.786;2023-08-21T13:51:38;26.70;92.60
5392;DHT22;2719;53.624;9.786;2023-08-21T13:54:05;26.80;91.70
5392;DHT22;2719;53.624;9.786;2023-08-21T13:56:33;26.80;93.40
5392;DHT22;2719;53.624;9.786;2023-08-21T13:59:00;26.90;93.00
5392;DHT22;2719;53.624;9.786;2023-08-21T14:01:28;26.90;92.30
5392;DHT22;2719;53.624;9.786;2023-08-21T14:03:54;27.00;91.70
5392;DHT22;2719;53.624;9.786;2023-08-21T14:06:21;27.10;92.20
5392;DHT22;2719;53.624;9.786;2023-08-21T14:08:47;27.10;93.00
5392;DHT22;2719;53.624;9.786;2023-08-21T14:11:14;27.10;92.10
5392;DHT22;2719;53.624;9.786;2023-08-21T14:13:42;27.20;91.70
5392;DHT22;2719;53.624;9.786;2023-08-21T14:16:09;27.30;91.60
5392;DHT22;2719;53.624;9.786;2023-08-21T14:18:35;27.40;91.60
5392;DHT22;2719;53.624;9.786;2023-08-21T14:21:02;27.50;91.70
5392;DHT22;2719;53.624;9.786;2023-08-21T14:23:29;27.50;91.10
5392;DHT22;2719;53.624;9.786;2023-08-21T14:25:55;27.60;91.90
5392;DHT22;2719;53.624;9.786;2023-08-21T14:28:22;27.60;91.20
5392;DHT22;2719;53.624;9.786;2023-08-21T14:30:50;27.60;90.70
5392;DHT22;2719;53.624;9.786;2023-08-21T14:33:17;27.60;88.30
5392;DHT22;2719;53.624;9.786;2023-08-21T14:35:44;27.50;88.90
5392;DHT22;2719;53.624;9.786;2023-08-21T14:38:11;27.60;91.70
5392;DHT22;2719;53.624;9.786;2023-08-21T14:40:38;27.60;91.40
5392;DHT22;2719;53.624;9.786;2023-08-21T14:43:04;27.60;89.40
5392;DHT22;2719;53.624;9.786;2023-08-21T14:45:31;27.60;87.60
5392;DHT22;2719;53.624;9.786;2023-08-21T14:47:59;27.60;87.60
5392;DHT22;2719;53.624;9.786;2023-08-21T14:50:26;27.70;89.30
5392;DHT22;2719;53.624;9.786;2023-08-21T14:52:53;27.70;90.20
5392;DHT22;2719;53.624;9.786;2023-08-21T14:55:19;27.70;90.80
5392;DHT22;2719;53.624;9.786;2023-08-21T14:57:46;27.70;89.40
5392;DHT22;2719;53.624;9.786;2023-08-21T15:00:13;27.60;86.30
5392;DHT22;2719;53.624;9.786;2023-08-21T15:02:42;27.60;87.40
5392;DHT22;2719;53.624;9.786;2023-08-21T15:05:10;27.70;87.10
5392;DHT22;2719;53.624;9.786;2023-08-21T15:07:37;27.80;90.30
5392;DHT22;2719;53.624;9.786;2023-08-21T15:10:04;27.80;87.30
5392;DHT22;2719;53.624;9.786;2023-08-21T15:12:31;27.60;90.60
5392;DHT22;2719;53.624;9.786;2023-08-21T15:14:57;27.70;86.90
5392;DHT22;2719;53.624;9.786;2023-08-21T15:17:24;27.70;87.50
5392;DHT22;2719;53.624;9.786;2023-08-21T15:19:51;27.80;89.70
5392;DHT22;2719;53.624;9.786;2023-08-21T15:22:19;27.80;86.80
5392;DHT22;2719;53.624;9.786;2023-08-21T15:24:46;27.80;89.30
5392;DHT22;2719;53.624;9.786;2023-08-21T15:27:13;27.90;90.20
5392;DHT22;2719;53.624;9.786;2023-08-21T15:29:41;27.80;86.50
5392;DHT22;2719;53.624;9.786;2023-08-21T15:32:08;27.70;86.20
5392;DHT22;2719;53.624;9.786;2023-08-21T15:34:35;27.60;83.90
5392;DHT22;2719;53.624;9.786;2023-08-21T15:37:01;27.60;84.40
5392;DHT22;2719;53.624;9.786;2023-08-21T15:39:30;27.40;82.10
5392;DHT22;2719;53.624;9.786;2023-08-21T15:41:57;27.50;85.00
5392;DHT22;2719;53.624;9.786;2023-08-21T15:44:24;27.60;84.70
5392;DHT22;2719;53.624;9.786;2023-08-21T15:46:50;27.50;84.90
5392;DHT22;2719;53.624;9.786;2023-08-21T15:49:17;27.60;88.40
5392;DHT22;2719;53.624;9.786;2023-08-21T15:51:43;27.60;90.30
5392;DHT22;2719;53.624;9.786;2023-08-21T15:54:10;27.70;88.70
5392;DHT22;2719;53.624;9.786;2023-08-21T15:56:38;27.70;88.10
5392;DHT22;2719;53.624;9.786;2023-08-21T15:59:05;27.60;87.60
5392;DHT22;2719;53.624;9.786;2023-08-21T16:01:32;27.50;88.70
5392;DHT22;2719;53.624;9.786;2023-08-21T16:03:58;27.60;87.60